sensor_id;sensor_type;location;lat;lon;timestamp;P1;durP1;ratioP1;P2;durP2;ratioP2
44410;SDS011;30122;54.734;-1.750;2022-07-09T00:01:50;0.30;;;0.10;;
44410;SDS011;30122;54.734;-1.750;2022-07-09T00:04:51;2.08;;;0.20;;
44410;SDS011;30122;54.734;-1.750;2022-07-09T00:07:54;0.20;;;0.20;;
44410;SDS011;30122;54.734;-1.750;2022-07-09T00:10:56;0.20;;;0.20;;
44410;SDS011;30122;54.734;-1.750;2022-07-09T00:13:57;0.20;;;0.13;;
44410;SDS011;30122;54.734;-1.750;2022-07-09T00:16:59;0.00;;;0.00;;
44410;SDS011;30122;54.734;-1.750;2022-07-09T00:20:01;0.10;;;0.10;;
44410;SDS011;30122;54.734;-1.750;2022-07-09T00:23:06;0.50;;;0.17;;
44410;SDS011;30122;54.734;-1.750;2022-07-09T00:26:08;0.05;;;0.05;;
44410;SDS011;30122;54.734;-1.750;2022-07-09T00:29:09;0.10;;;0.10;;
44410;SDS011;30122;54.734;-1.750;2022-07-09T00:32:11;0.30;;;0.10;;
44410;SDS011;30122;54.734;-1.750;2022-07-09T00:35:13;0.37;;;0.00;;
44410;SDS011;30122;54.734;-1.750;2022-07-09T00:38:15;0.00;;;0.00;;
44410;SDS011;30122;54.734;-1.750;2022-07-09T00:41:16;0.30;;;0.10;;
44410;SDS011;30122;54.734;-1.750;2022-07-09T00:44:18;0.37;;;0.00;;
44410;SDS011;30122;54.734;-1.750;2022-07-09T00:47:20;0.20;;;0.20;;
44410;SDS011;30122;54.734;-1.750;2022-07-09T00:50:21;0.20;;;0.20;;
44410;SDS011;30122;54.734;-1.750;2022-07-09T00:53:23;0.47;;;0.20;;
44410;SDS011;30122;54.734;-1.750;2022-07-09T00:56:27;0.10;;;0.10;;
44410;SDS011;30122;54.734;-1.750;2022-07-09T00:59:29;0.40;;;0.10;;
44410;SDS011;30122;54.734;-1.750;2022-07-09T01:02:31;0.00;;;0.00;;
44410;SDS011;30122;54.734;-1.750;2022-07-09T01:05:33;0.00;;;0.00;;
44410;SDS011;30122;54.734;-1.750;2022-07-09T01:08:38;0.22;;;0.08;;
44410;SDS011;30122;54.734;-1.750;2022-07-09T01:11:40;0.10;;;0.08;;
44410;SDS011;30122;54.734;-1.750;2022-07-09T01:14:41;0.68;;;0.13;;
44410;SDS011;30122;54.734;-1.750;2022-07-09T01:17:43;0.00;;;0.00;;
44410;SDS011;30122;54.734;-1.750;2022-07-09T01:20:45;0.20;;;0.10;;
44410;SDS011;30122;54.734;-1.750;2022-07-09T01:23:47;0.00;;;0.00;;
44410;SDS011;30122;54.734;-1.750;2022-07-09T01:26:49;0.10;;;0.10;;
44410;SDS011;30122;54.734;-1.750;2022-07-09T01:29:51;0.00;;;0.00;;
44410;SDS011;30122;54.734;-1.750;2022-07-09T01:32:54;0.23;;;0.13;;
44410;SDS011;30122;54.734;-1.750;2022-07-09T01:38:57;0.03;;;0.03;;
44410;SDS011;30122;54.734;-1.750;2022-07-09T01:41:59;0.00;;;0.00;;
44410;SDS011;30122;54.734;-1.750;2022-07-09T01:45:01;0.00;;;0.00;;
44410;SDS011;30122;54.734;-1.750;2022-07-09T01:48:03;0.03;;;0.03;;
44410;SDS011;30122;54.734;-1.750;2022-07-09T01:51:05;0.10;;;0.10;;
44410;SDS011;30122;54.734;-1.750;2022-07-09T01:54:06;0.00;;;0.00;;
44410;SDS011;30122;54.734;-1.750;2022-07-09T01:57:08;0.10;;;0.07;;
44410;SDS011;30122;54.734;-1.750;2022-07-09T02:00:10;0.00;;;0.00;;
44410;SDS011;30122;54.734;-1.750;2022-07-09T02:03:16;0.00;;;0.00;;
44410;SDS011;30122;54.734;-1.750;2022-07-09T02:06:18;0.30;;;0.10;;
44410;SDS011;30122;54.734;-1.750;2022-07-09T02:09:20;0.10;;;0.00;;
44410;SDS011;30122;54.734;-1.750;2022-07-09T02:12:22;0.08;;;0.08;;
44410;SDS011;30122;54.734;-1.750;2022-07-09T02:15:23;0.00;;;0.00;;
44410;SDS011;30122;54.734;-1.750;2022-07-09T02:18:25;0.10;;;0.10;;
44410;SDS011;30122;54.734;-1.750;2022-07-09T02:21:27;0.00;;;0.00;;
44410;SDS011;30122;54.734;-1.750;2022-07-09T02:24:29;0.00;;;0.00;;
44410;SDS011;30122;54.734;-1.750;2022-07-09T02:27:30;0.00;;;0.00;;
44410;SDS011;30122;54.734;-1.750;2022-07-09T02:30:32;0.00;;;0.00;;
44410;SDS011;30122;54.734;-1.750;2022-07-09T02:33:35;0.00;;;0.00;;
44410;SDS011;30122;54.734;-1.750;2022-07-09T02:36:37;0.43;;;0.15;;
44410;SDS011;30122;54.734;-1.750;2022-07-09T02:39:39;0.27;;;0.20;;
44410;SDS011;30122;54.734;-1.750;2022-07-09T02:42:41;0.07;;;0.07;;
44410;SDS011;30122;54.734;-1.750;2022-07-09T02:45:42;0.00;;;0.00;;
44410;SDS011;30122;54.734;-1.750;2022-07-09T02:48:44;0.00;;;0.00;;
44410;SDS011;30122;54.734;-1.750;2022-07-09T02:51:46;0.00;;;0.00;;
44410;SDS011;30122;54.734;-1.750;2022-07-09T02:54:48;0.05;;;0.05;;
44410;SDS011;30122;54.734;-1.750;2022-07-09T02:57:50;0.10;;;0.10;;
44410;SDS011;30122;54.734;-1.750;2022-07-09T03:00:51;0.00;;;0.00;;
44410;SDS011;30122;54.734;-1.750;2022-07-09T03:03:53;0.00;;;0.00;;
44410;SDS011;30122;54.734;-1.750;2022-07-09T03:06:55;0.00;;;0.00;;
44410;SDS011;30122;54.734;-1.750;2022-07-09T03:09:57;0.10;;;0.10;;
44410;SDS011;30122;54.734;-1.750;2022-07-09T03:12:58;0.10;;;0.10;;
44410;SDS011;30122;54.734;-1.750;2022-07-09T03:16:00;1.35;;;0.05;;
44410;SDS011;30122;54.734;-1.750;2022-07-09T03:19:02;0.10;;;0.10;;
44410;SDS011;30122;54.734;-1.750;2022-07-09T03:22:04;0.10;;;0.10;;
44410;SDS011;30122;54.734;-1.750;2022-07-09T03:25:06;0.10;;;0.10;;
44410;SDS011;30122;54.734;-1.750;2022-07-09T03:31:11;0.08;;;0.08;;
44410;SDS011;30122;54.734;-1.750;2022-07-09T03:34:12;0.10;;;0.10;;
44410;SDS011;30122;54.734;-1.750;2022-07-09T03:37:14;0.00;;;0.00;;
44410;SDS011;30122;54.734;-1.750;2022-07-09T03:40:16;0.00;;;0.00;;
44410;SDS011;30122;54.734;-1.750;2022-07-09T03:43:18;0.00;;;0.00;;
44410;SDS011;30122;54.734;-1.750;2022-07-09T03:46:20;0.67;;;0.10;;
44410;SDS011;30122;54.734;-1.750;2022-07-09T03:49:21;0.37;;;0.10;;
44410;SDS011;30122;54.734;-1.750;2022-07-09T03:52:23;0.00;;;0.00;;
44410;SDS011;30122;54.734;-1.750;2022-07-09T03:55:25;0.00;;;0.00;;
44410;SDS011;30122;54.734;-1.750;2022-07-09T03:58:27;0.05;;;0.03;;
44410;SDS011;30122;54.734;-1.750;2022-07-09T04:01:28;0.10;;;0.10;;
44410;SDS011;30122;54.734;-1.750;2022-07-09T04:04:30;0.07;;;0.07;;
44410;SDS011;30122;54.734;-1.750;2022-07-09T04:07:32;0.10;;;0.10;;
44410;SDS011;30122;54.734;-1.750;2022-07-09T04:10:34;0.67;;;0.20;;
44410;SDS011;30122;54.734;-1.750;2022-07-09T04:13:36;0.00;;;0.00;;
44410;SDS011;30122;54.734;-1.750;2022-07-09T04:16:38;0.20;;;0.10;;
44410;SDS011;30122;54.734;-1.750;2022-07-09T04:19:40;0.00;;;0.00;;
44410;SDS011;30122;54.734;-1.750;2022-07-09T04:22:42;0.10;;;0.10;;
44410;SDS011;30122;54.734;-1.750;2022-07-09T04:25:44;0.10;;;0.10;;
44410;SDS011;30122;54.734;-1.750;2022-07-09T04:28:47;0.00;;;0.00;;
44410;SDS011;30122;54.734;-1.750;2022-07-09T04:31:48;0.10;;;0.10;;
44410;SDS011;30122;54.734;-1.750;2022-07-09T04:34:50;0.37;;;0.10;;
44410;SDS011;30122;54.734;-1.750;2022-07-09T04:37:52;5.13;;;0.10;;
44410;SDS011;30122;54.734;-1.750;2022-07-09T04:40:54;0.10;;;0.10;;
44410;SDS011;30122;54.734;-1.750;2022-07-09T04:46:58;0.22;;;0.05;;
44410;SDS011;30122;54.734;-1.750;2022-07-09T04:49:59;0.00;;;0.00;;
44410;SDS011;30122;54.734;-1.750;2022-07-09T04:53:01;0.00;;;0.00;;
44410;SDS011;30122;54.734;-1.750;2022-07-09T04:56:03;1.33;;;0.10;;
44410;SDS011;30122;54.734;-1.750;2022-07-09T04:59:05;0.00;;;0.00;;
44410;SDS011;30122;54.734;-1.750;2022-07-09T05:02:07;0.00;;;0.00;;
44410;SDS011;30122;54.734;-1.750;2022-07-09T05:05:08;0.97;;;0.10;;
44410;SDS011;30122;54.734;-1.750;2022-07-09T05:08:10;0.08;;;0.03;;
44410;SDS011;30122;54.734;-1.750;2022-07-09T05:11:12;1.98;;;0.10;;
44410;SDS011;30122;54.734;-1.750;2022-07-09T05:14:19;0.00;;;0.00;;
44410;SDS011;30122;54.734;-1.750;2022-07-09T05:17:20;2.33;;;0.00;;
44410;SDS011;30122;54.734;-1.750;2022-07-09T05:20:22;0.30;;;0.10;;
44410;SDS011;30122;54.734;-1.750;2022-07-09T05:23:24;0.10;;;0.00;;
44410;SDS011;30122;54.734;-1.750;2022-07-09T05:26:26;0.00;;;0.00;;
44410;SDS011;30122;54.734;-1.750;2022-07-09T05:29:30;1.30;;;0.03;;
44410;SDS011;30122;54.734;-1.750;2022-07-09T05:32:32;0.20;;;0.20;;
44410;SDS011;30122;54.734;-1.750;2022-07-09T05:35:34;0.00;;;0.00;;
44410;SDS011;30122;54.734;-1.750;2022-07-09T05:38:36;0.00;;;0.00;;
44410;SDS011;30122;54.734;-1.750;2022-07-09T05:41:38;0.00;;;0.00;;
44410;SDS011;30122;54.734;-1.750;2022-07-09T05:44:40;0.00;;;0.00;;
44410;SDS011;30122;54.734;-1.750;2022-07-09T05:47:41;0.93;;;0.00;;
44410;SDS011;30122;54.734;-1.750;2022-07-09T05:50:43;0.00;;;0.00;;
44410;SDS011;30122;54.734;-1.750;2022-07-09T05:53:45;0.10;;;0.10;;
44410;SDS011;30122;54.734;-1.750;2022-07-09T05:56:47;0.00;;;0.00;;
44410;SDS011;30122;54.734;-1.750;2022-07-09T05:59:48;0.10;;;0.10;;
44410;SDS011;30122;54.734;-1.750;2022-07-09T06:02:50;0.13;;;0.10;;
44410;SDS011;30122;54.734;-1.750;2022-07-09T06:05:52;0.03;;;0.03;;
44410;SDS011;30122;54.734;-1.750;2022-07-09T06:08:54;0.22;;;0.08;;
44410;SDS011;30122;54.734;-1.750;2022-07-09T06:11:55;0.00;;;0.00;;
44410;SDS011;30122;54.734;-1.750;2022-07-09T06:14:57;0.00;;;0.00;;
44410;SDS011;30122;54.734;-1.750;2022-07-09T06:17:59;0.10;;;0.10;;
44410;SDS011;30122;54.734;-1.750;2022-07-09T06:21:01;0.20;;;0.10;;
44410;SDS011;30122;54.734;-1.750;2022-07-09T06:24:03;0.00;;;0.00;;
44410;SDS011;30122;54.734;-1.750;2022-07-09T06:27:04;0.73;;;0.10;;
44410;SDS011;30122;54.734;-1.750;2022-07-09T06:30:06;0.03;;;0.03;;
44410;SDS011;30122;54.734;-1.750;2022-07-09T06:33:08;0.00;;;0.00;;
44410;SDS011;30122;54.734;-1.750;2022-07-09T06:36:10;1.67;;;0.23;;
44410;SDS011;30122;54.734;-1.750;2022-07-09T06:39:12;1.20;;;0.07;;
44410;SDS011;30122;54.734;-1.750;2022-07-09T06:42:32;0.00;;;0.00;;
44410;SDS011;30122;54.734;-1.750;2022-07-09T06:45:50;0.17;;;0.10;;
44410;SDS011;30122;54.734;-1.750;2022-07-09T06:48:51;0.15;;;0.10;;
44410;SDS011;30122;54.734;-1.750;2022-07-09T06:51:53;0.27;;;0.03;;
44410;SDS011;30122;54.734;-1.750;2022-07-09T06:54:55;0.20;;;0.00;;
44410;SDS011;30122;54.734;-1.750;2022-07-09T06:57:58;0.00;;;0.00;;
44410;SDS011;30122;54.734;-1.750;2022-07-09T07:01:01;2.53;;;1.13;;
44410;SDS011;30122;54.734;-1.750;2022-07-09T07:04:03;0.45;;;0.10;;
44410;SDS011;30122;54.734;-1.750;2022-07-09T07:07:05;1.45;;;0.10;;
44410;SDS011;30122;54.734;-1.750;2022-07-09T07:10:07;0.52;;;0.10;;
44410;SDS011;30122;54.734;-1.750;2022-07-09T07:13:10;0.15;;;0.10;;
44410;SDS011;30122;54.734;-1.750;2022-07-09T07:16:12;0.25;;;0.15;;
44410;SDS011;30122;54.734;-1.750;2022-07-09T07:19:14;0.10;;;0.10;;
44410;SDS011;30122;54.734;-1.750;2022-07-09T07:22:15;0.10;;;0.10;;
44410;SDS011;30122;54.734;-1.750;2022-07-09T07:25:17;0.00;;;0.00;;
44410;SDS011;30122;54.734;-1.750;2022-07-09T07:28:19;0.40;;;0.10;;
44410;SDS011;30122;54.734;-1.750;2022-07-09T07:31:20;0.83;;;0.13;;
44410;SDS011;30122;54.734;-1.750;2022-07-09T07:34:24;1.55;;;0.25;;
44410;SDS011;30122;54.734;-1.750;2022-07-09T07:37:26;1.55;;;0.20;;
44410;SDS011;30122;54.734;-1.750;2022-07-09T07:40:28;0.20;;;0.10;;
44410;SDS011;30122;54.734;-1.750;2022-07-09T07:43:29;0.10;;;0.10;;
44410;SDS011;30122;54.734;-1.750;2022-07-09T07:46:31;0.67;;;0.20;;
44410;SDS011;30122;54.734;-1.750;2022-07-09T07:49:33;0.30;;;0.10;;
44410;SDS011;30122;54.734;-1.750;2022-07-09T07:52:34;0.40;;;0.13;;
44410;SDS011;30122;54.734;-1.750;2022-07-09T07:55:36;0.57;;;0.20;;
44410;SDS011;30122;54.734;-1.750;2022-07-09T07:58:38;0.23;;;0.03;;
44410;SDS011;30122;54.734;-1.750;2022-07-09T08:01:40;0.10;;;0.10;;
44410;SDS011;30122;54.734;-1.750;2022-07-09T08:04:41;0.35;;;0.10;;
44410;SDS011;30122;54.734;-1.750;2022-07-09T08:07:43;4.10;;;0.00;;
44410;SDS011;30122;54.734;-1.750;2022-07-09T08:10:45;0.20;;;0.10;;
44410;SDS011;30122;54.734;-1.750;2022-07-09T08:13:47;0.05;;;0.05;;
44410;SDS011;30122;54.734;-1.750;2022-07-09T08:16:49;0.90;;;0.20;;
44410;SDS011;30122;54.734;-1.750;2022-07-09T08:19:51;0.65;;;0.20;;
44410;SDS011;30122;54.734;-1.750;2022-07-09T08:22:53;0.08;;;0.08;;
44410;SDS011;30122;54.734;-1.750;2022-07-09T08:25:55;0.20;;;0.17;;
44410;SDS011;30122;54.734;-1.750;2022-07-09T08:28:56;0.10;;;0.10;;
44410;SDS011;30122;54.734;-1.750;2022-07-09T08:31:58;0.63;;;0.13;;
44410;SDS011;30122;54.734;-1.750;2022-07-09T08:35:00;0.10;;;0.10;;
44410;SDS011;30122;54.734;-1.750;2022-07-09T08:38:02;0.38;;;0.00;;
44410;SDS011;30122;54.734;-1.750;2022-07-09T08:41:04;0.65;;;0.00;;
44410;SDS011;30122;54.734;-1.750;2022-07-09T08:44:10;0.60;;;0.10;;
44410;SDS011;30122;54.734;-1.750;2022-07-09T08:47:12;2.05;;;0.20;;
44410;SDS011;30122;54.734;-1.750;2022-07-09T08:50:16;1.17;;;0.20;;
44410;SDS011;30122;54.734;-1.750;2022-07-09T08:53:19;0.30;;;0.20;;
44410;SDS011;30122;54.734;-1.750;2022-07-09T08:56:21;0.13;;;0.05;;
44410;SDS011;30122;54.734;-1.750;2022-07-09T08:59:22;0.08;;;0.08;;
44410;SDS011;30122;54.734;-1.750;2022-07-09T09:02:24;0.20;;;0.15;;
44410;SDS011;30122;54.734;-1.750;2022-07-09T09:05:26;0.10;;;0.10;;
44410;SDS011;30122;54.734;-1.750;2022-07-09T09:08:28;3.20;;;0.40;;
44410;SDS011;30122;54.734;-1.750;2022-07-09T09:11:38;0.85;;;0.35;;
44410;SDS011;30122;54.734;-1.750;2022-07-09T09:14:47;1.13;;;0.20;;
44410;SDS011;30122;54.734;-1.750;2022-07-09T09:17:50;0.82;;;0.15;;
44410;SDS011;30122;54.734;-1.750;2022-07-09T09:20:52;8.18;;;0.40;;
44410;SDS011;30122;54.734;-1.750;2022-07-09T09:23:55;2.50;;;0.20;;
44410;SDS011;30122;54.734;-1.750;2022-07-09T09:26:59;2.15;;;0.20;;
44410;SDS011;30122;54.734;-1.750;2022-07-09T09:33:03;0.60;;;0.20;;
44410;SDS011;30122;54.734;-1.750;2022-07-09T09:36:05;0.70;;;0.20;;
44410;SDS011;30122;54.734;-1.750;2022-07-09T09:42:09;3.10;;;0.40;;
44410;SDS011;30122;54.734;-1.750;2022-07-09T09:45:15;0.65;;;0.38;;
44410;SDS011;30122;54.734;-1.750;2022-07-09T09:48:17;0.20;;;0.20;;
44410;SDS011;30122;54.734;-1.750;2022-07-09T09:51:20;0.93;;;0.47;;
44410;SDS011;30122;54.734;-1.750;2022-07-09T09:54:22;0.20;;;0.20;;
44410;SDS011;30122;54.734;-1.750;2022-07-09T09:57:24;0.20;;;0.10;;
44410;SDS011;30122;54.734;-1.750;2022-07-09T10:00:28;0.55;;;0.30;;
44410;SDS011;30122;54.734;-1.750;2022-07-09T10:03:31;0.50;;;0.35;;
44410;SDS011;30122;54.734;-1.750;2022-07-09T10:06:40;0.32;;;0.20;;
44410;SDS011;30122;54.734;-1.750;2022-07-09T10:09:57;0.40;;;0.30;;
44410;SDS011;30122;54.734;-1.750;2022-07-09T10:13:00;4.78;;;0.50;;
44410;SDS011;30122;54.734;-1.750;2022-07-09T10:16:02;0.65;;;0.10;;
44410;SDS011;30122;54.734;-1.750;2022-07-09T10:19:04;1.15;;;0.20;;
44410;SDS011;30122;54.734;-1.750;2022-07-09T10:22:06;0.38;;;0.38;;
44410;SDS011;30122;54.734;-1.750;2022-07-09T10:25:09;1.52;;;0.40;;
44410;SDS011;30122;54.734;-1.750;2022-07-09T10:28:15;1.77;;;0.20;;
44410;SDS011;30122;54.734;-1.750;2022-07-09T10:31:20;0.30;;;0.17;;
44410;SDS011;30122;54.734;-1.750;2022-07-09T10:37:43;0.22;;;0.20;;
44410;SDS011;30122;54.734;-1.750;2022-07-09T10:40:46;1.23;;;0.40;;
44410;SDS011;30122;54.734;-1.750;2022-07-09T10:43:49;0.30;;;0.17;;
44410;SDS011;30122;54.734;-1.750;2022-07-09T10:46:56;0.60;;;0.30;;
44410;SDS011;30122;54.734;-1.750;2022-07-09T10:50:02;2.95;;;0.20;;
44410;SDS011;30122;54.734;-1.750;2022-07-09T10:53:05;1.17;;;0.32;;
44410;SDS011;30122;54.734;-1.750;2022-07-09T10:56:07;0.95;;;0.25;;
44410;SDS011;30122;54.734;-1.750;2022-07-09T10:59:09;2.00;;;0.45;;
44410;SDS011;30122;54.734;-1.750;2022-07-09T11:02:18;0.63;;;0.25;;
44410;SDS011;30122;54.734;-1.750;2022-07-09T11:05:23;1.02;;;0.45;;
44410;SDS011;30122;54.734;-1.750;2022-07-09T11:08:26;0.38;;;0.20;;
44410;SDS011;30122;54.734;-1.750;2022-07-09T11:11:28;0.17;;;0.13;;
44410;SDS011;30122;54.734;-1.750;2022-07-09T11:14:29;0.20;;;0.20;;
44410;SDS011;30122;54.734;-1.750;2022-07-09T11:17:31;1.67;;;0.30;;
44410;SDS011;30122;54.734;-1.750;2022-07-09T11:20:40;0.45;;;0.17;;
44410;SDS011;30122;54.734;-1.750;2022-07-09T11:23:47;1.70;;;0.17;;
44410;SDS011;30122;54.734;-1.750;2022-07-09T11:26:50;0.52;;;0.30;;
44410;SDS011;30122;54.734;-1.750;2022-07-09T11:29:52;0.60;;;0.30;;
44410;SDS011;30122;54.734;-1.750;2022-07-09T11:32:54;0.70;;;0.30;;
44410;SDS011;30122;54.734;-1.750;2022-07-09T11:38:57;1.50;;;0.30;;
44410;SDS011;30122;54.734;-1.750;2022-07-09T11:42:00;0.30;;;0.20;;
44410;SDS011;30122;54.734;-1.750;2022-07-09T11:45:02;2.30;;;0.90;;
44410;SDS011;30122;54.734;-1.750;2022-07-09T11:48:05;0.50;;;0.30;;
44410;SDS011;30122;54.734;-1.750;2022-07-09T11:51:13;1.20;;;0.25;;
44410;SDS011;30122;54.734;-1.750;2022-07-09T11:54:14;0.70;;;0.52;;
44410;SDS011;30122;54.734;-1.750;2022-07-09T11:57:28;1.02;;;0.30;;
44410;SDS011;30122;54.734;-1.750;2022-07-09T12:00:31;0.50;;;0.30;;
44410;SDS011;30122;54.734;-1.750;2022-07-09T12:03:35;1.27;;;0.30;;
44410;SDS011;30122;54.734;-1.750;2022-07-09T12:06:48;1.33;;;0.25;;
44410;SDS011;30122;54.734;-1.750;2022-07-09T12:09:59;0.52;;;0.15;;
44410;SDS011;30122;54.734;-1.750;2022-07-09T12:13:06;2.28;;;0.45;;
44410;SDS011;30122;54.734;-1.750;2022-07-09T12:16:08;0.47;;;0.20;;
44410;SDS011;30122;54.734;-1.750;2022-07-09T12:19:09;2.40;;;0.20;;
44410;SDS011;30122;54.734;-1.750;2022-07-09T12:22:11;0.22;;;0.13;;
44410;SDS011;30122;54.734;-1.750;2022-07-09T12:25:13;0.10;;;0.10;;
44410;SDS011;30122;54.734;-1.750;2022-07-09T12:28:15;0.57;;;0.20;;
44410;SDS011;30122;54.734;-1.750;2022-07-09T12:31:17;2.97;;;1.23;;
44410;SDS011;30122;54.734;-1.750;2022-07-09T12:34:18;1.50;;;0.15;;
44410;SDS011;30122;54.734;-1.750;2022-07-09T12:37:20;0.95;;;0.30;;
44410;SDS011;30122;54.734;-1.750;2022-07-09T12:40:22;1.67;;;0.40;;
44410;SDS011;30122;54.734;-1.750;2022-07-09T12:43:24;0.43;;;0.20;;
44410;SDS011;30122;54.734;-1.750;2022-07-09T12:46:26;0.65;;;0.28;;
44410;SDS011;30122;54.734;-1.750;2022-07-09T12:52:33;0.40;;;0.20;;
44410;SDS011;30122;54.734;-1.750;2022-07-09T12:55:35;2.47;;;0.35;;
44410;SDS011;30122;54.734;-1.750;2022-07-09T12:58:56;1.08;;;0.20;;
44410;SDS011;30122;54.734;-1.750;2022-07-09T13:01:58;1.02;;;0.20;;
44410;SDS011;30122;54.734;-1.750;2022-07-09T13:05:00;2.25;;;0.60;;
44410;SDS011;30122;54.734;-1.750;2022-07-09T13:08:02;0.77;;;0.20;;
44410;SDS011;30122;54.734;-1.750;2022-07-09T13:11:04;0.80;;;0.22;;
44410;SDS011;30122;54.734;-1.750;2022-07-09T13:17:07;1.85;;;0.40;;
44410;SDS011;30122;54.734;-1.750;2022-07-09T13:20:30;0.63;;;0.25;;
44410;SDS011;30122;54.734;-1.750;2022-07-09T13:23:40;0.37;;;0.10;;
44410;SDS011;30122;54.734;-1.750;2022-07-09T13:26:43;0.25;;;0.20;;
44410;SDS011;30122;54.734;-1.750;2022-07-09T13:29:45;0.47;;;0.20;;
44410;SDS011;30122;54.734;-1.750;2022-07-09T13:32:47;0.32;;;0.20;;
44410;SDS011;30122;54.734;-1.750;2022-07-09T13:35:48;0.40;;;0.20;;
44410;SDS011;30122;54.734;-1.750;2022-07-09T13:41:52;0.85;;;0.20;;
44410;SDS011;30122;54.734;-1.750;2022-07-09T13:47:55;0.85;;;0.17;;
44410;SDS011;30122;54.734;-1.750;2022-07-09T13:50:57;1.40;;;0.45;;
44410;SDS011;30122;54.734;-1.750;2022-07-09T13:53:59;1.90;;;0.60;;
44410;SDS011;30122;54.734;-1.750;2022-07-09T13:57:00;1.65;;;0.75;;
44410;SDS011;30122;54.734;-1.750;2022-07-09T14:00:03;0.90;;;0.30;;
44410;SDS011;30122;54.734;-1.750;2022-07-09T14:03:07;0.47;;;0.30;;
44410;SDS011;30122;54.734;-1.750;2022-07-09T14:06:08;0.32;;;0.30;;
44410;SDS011;30122;54.734;-1.750;2022-07-09T14:09:31;0.93;;;0.30;;
44410;SDS011;30122;54.734;-1.750;2022-07-09T14:12:33;1.88;;;0.50;;
44410;SDS011;30122;54.734;-1.750;2022-07-09T14:15:35;0.75;;;0.30;;
44410;SDS011;30122;54.734;-1.750;2022-07-09T14:18:36;2.45;;;0.30;;
44410;SDS011;30122;54.734;-1.750;2022-07-09T14:21:38;0.57;;;0.30;;
44410;SDS011;30122;54.734;-1.750;2022-07-09T14:24:46;1.38;;;0.20;;
44410;SDS011;30122;54.734;-1.750;2022-07-09T14:27:48;0.22;;;0.20;;
44410;SDS011;30122;54.734;-1.750;2022-07-09T14:30:50;0.38;;;0.20;;
44410;SDS011;30122;54.734;-1.750;2022-07-09T14:33:51;1.27;;;0.40;;
44410;SDS011;30122;54.734;-1.750;2022-07-09T14:36:55;2.42;;;0.30;;
44410;SDS011;30122;54.734;-1.750;2022-07-09T14:39:57;3.75;;;0.40;;
44410;SDS011;30122;54.734;-1.750;2022-07-09T14:42:59;0.65;;;0.30;;
44410;SDS011;30122;54.734;-1.750;2022-07-09T14:46:01;0.57;;;0.20;;
44410;SDS011;30122;54.734;-1.750;2022-07-09T14:49:03;0.93;;;0.35;;
44410;SDS011;30122;54.734;-1.750;2022-07-09T14:52:12;1.13;;;0.40;;
44410;SDS011;30122;54.734;-1.750;2022-07-09T14:55:15;0.30;;;0.20;;
44410;SDS011;30122;54.734;-1.750;2022-07-09T14:58:18;2.67;;;0.35;;
44410;SDS011;30122;54.734;-1.750;2022-07-09T15:01:20;1.00;;;0.40;;
44410;SDS011;30122;54.734;-1.750;2022-07-09T15:04:22;0.50;;;0.38;;
44410;SDS011;30122;54.734;-1.750;2022-07-09T15:07:23;1.85;;;0.40;;
44410;SDS011;30122;54.734;-1.750;2022-07-09T15:10:25;2.28;;;0.30;;
44410;SDS011;30122;54.734;-1.750;2022-07-09T15:13:27;1.50;;;0.57;;
44410;SDS011;30122;54.734;-1.750;2022-07-09T15:16:29;1.40;;;0.38;;
44410;SDS011;30122;54.734;-1.750;2022-07-09T15:19:31;2.65;;;0.40;;
44410;SDS011;30122;54.734;-1.750;2022-07-09T15:22:32;0.60;;;0.25;;
44410;SDS011;30122;54.734;-1.750;2022-07-09T15:25:34;0.57;;;0.30;;
44410;SDS011;30122;54.734;-1.750;2022-07-09T15:28:36;0.73;;;0.38;;
44410;SDS011;30122;54.734;-1.750;2022-07-09T15:31:38;0.90;;;0.55;;
44410;SDS011;30122;54.734;-1.750;2022-07-09T15:34:40;0.65;;;0.50;;
44410;SDS011;30122;54.734;-1.750;2022-07-09T15:37:44;2.45;;;0.50;;
44410;SDS011;30122;54.734;-1.750;2022-07-09T15:40:46;1.33;;;0.45;;
44410;SDS011;30122;54.734;-1.750;2022-07-09T15:43:47;0.30;;;0.30;;
44410;SDS011;30122;54.734;-1.750;2022-07-09T15:46:49;0.63;;;0.30;;
44410;SDS011;30122;54.734;-1.750;2022-07-09T15:49:51;1.67;;;0.40;;
44410;SDS011;30122;54.734;-1.750;2022-07-09T15:52:53;2.90;;;0.70;;
44410;SDS011;30122;54.734;-1.750;2022-07-09T15:55:54;0.65;;;0.35;;
44410;SDS011;30122;54.734;-1.750;2022-07-09T15:58:56;1.48;;;0.38;;
44410;SDS011;30122;54.734;-1.750;2022-07-09T16:01:58;1.13;;;0.50;;
44410;SDS011;30122;54.734;-1.750;2022-07-09T16:05:00;1.08;;;0.47;;
44410;SDS011;30122;54.734;-1.750;2022-07-09T16:08:02;0.45;;;0.30;;
44410;SDS011;30122;54.734;-1.750;2022-07-09T16:11:05;0.95;;;0.50;;
44410;SDS011;30122;54.734;-1.750;2022-07-09T16:14:25;1.65;;;0.35;;
44410;SDS011;30122;54.734;-1.750;2022-07-09T16:17:27;1.77;;;0.63;;
44410;SDS011;30122;54.734;-1.750;2022-07-09T16:20:29;1.45;;;0.40;;
44410;SDS011;30122;54.734;-1.750;2022-07-09T16:23:31;2.40;;;0.20;;
44410;SDS011;30122;54.734;-1.750;2022-07-09T16:26:32;2.15;;;0.60;;
44410;SDS011;30122;54.734;-1.750;2022-07-09T16:29:34;1.65;;;0.35;;
44410;SDS011;30122;54.734;-1.750;2022-07-09T16:32:37;1.23;;;0.50;;
44410;SDS011;30122;54.734;-1.750;2022-07-09T16:35:39;0.70;;;0.30;;
44410;SDS011;30122;54.734;-1.750;2022-07-09T16:38:41;2.50;;;0.40;;
44410;SDS011;30122;54.734;-1.750;2022-07-09T16:41:42;2.33;;;0.30;;
44410;SDS011;30122;54.734;-1.750;2022-07-09T16:44:44;0.95;;;0.40;;
44410;SDS011;30122;54.734;-1.750;2022-07-09T16:47:46;1.55;;;0.47;;
44410;SDS011;30122;54.734;-1.750;2022-07-09T16:50:48;2.65;;;0.35;;
44410;SDS011;30122;54.734;-1.750;2022-07-09T16:53:49;1.63;;;0.40;;
44410;SDS011;30122;54.734;-1.750;2022-07-09T16:56:54;4.25;;;0.85;;
44410;SDS011;30122;54.734;-1.750;2022-07-09T16:59:56;2.17;;;0.88;;
44410;SDS011;30122;54.734;-1.750;2022-07-09T17:03:16;0.63;;;0.28;;
44410;SDS011;30122;54.734;-1.750;2022-07-09T17:06:18;1.95;;;0.52;;
44410;SDS011;30122;54.734;-1.750;2022-07-09T17:09:20;1.00;;;0.40;;
44410;SDS011;30122;54.734;-1.750;2022-07-09T17:12:21;0.82;;;0.40;;
44410;SDS011;30122;54.734;-1.750;2022-07-09T17:15:23;2.42;;;0.60;;
44410;SDS011;30122;54.734;-1.750;2022-07-09T17:18:25;0.60;;;0.30;;
44410;SDS011;30122;54.734;-1.750;2022-07-09T17:21:26;2.85;;;0.70;;
44410;SDS011;30122;54.734;-1.750;2022-07-09T17:24:28;1.65;;;0.68;;
44410;SDS011;30122;54.734;-1.750;2022-07-09T17:27:30;0.85;;;0.52;;
44410;SDS011;30122;54.734;-1.750;2022-07-09T17:30:32;1.50;;;0.65;;
44410;SDS011;30122;54.734;-1.750;2022-07-09T17:33:33;0.98;;;0.45;;
44410;SDS011;30122;54.734;-1.750;2022-07-09T17:36:35;2.97;;;0.45;;
44410;SDS011;30122;54.734;-1.750;2022-07-09T17:39:37;0.90;;;0.55;;
44410;SDS011;30122;54.734;-1.750;2022-07-09T17:42:38;2.45;;;0.70;;
44410;SDS011;30122;54.734;-1.750;2022-07-09T17:45:40;1.30;;;0.57;;
44410;SDS011;30122;54.734;-1.750;2022-07-09T17:48:44;1.80;;;0.52;;
44410;SDS011;30122;54.734;-1.750;2022-07-09T17:51:45;3.00;;;0.60;;
44410;SDS011;30122;54.734;-1.750;2022-07-09T17:54:49;3.50;;;0.70;;
44410;SDS011;30122;54.734;-1.750;2022-07-09T18:00:53;0.88;;;0.50;;
44410;SDS011;30122;54.734;-1.750;2022-07-09T18:03:55;1.17;;;0.60;;
44410;SDS011;30122;54.734;-1.750;2022-07-09T18:09:58;1.25;;;0.40;;
44410;SDS011;30122;54.734;-1.750;2022-07-09T18:13:00;1.10;;;0.60;;
44410;SDS011;30122;54.734;-1.750;2022-07-09T18:16:07;2.53;;;0.60;;
44410;SDS011;30122;54.734;-1.750;2022-07-09T18:19:09;0.77;;;0.40;;
44410;SDS011;30122;54.734;-1.750;2022-07-09T18:25:13;0.90;;;0.52;;
44410;SDS011;30122;54.734;-1.750;2022-07-09T18:28:14;1.40;;;0.65;;
44410;SDS011;30122;54.734;-1.750;2022-07-09T18:31:16;2.15;;;0.55;;
44410;SDS011;30122;54.734;-1.750;2022-07-09T18:34:19;1.52;;;0.60;;
44410;SDS011;30122;54.734;-1.750;2022-07-09T18:40:22;2.28;;;0.82;;
44410;SDS011;30122;54.734;-1.750;2022-07-09T18:43:24;1.65;;;0.70;;
44410;SDS011;30122;54.734;-1.750;2022-07-09T18:46:26;2.15;;;0.98;;
44410;SDS011;30122;54.734;-1.750;2022-07-09T18:49:28;1.13;;;0.60;;